createdAt,value
2023-05-05T00:02:07.680Z,5.88
2023-05-05T00:04:34.697Z,5.85
2023-05-05T00:07:01.780Z,5.60
2023-05-05T00:09:28.809Z,6.28
2023-05-05T00:11:56.130Z,6.63
2023-05-05T00:14:23.099Z,6.72
2023-05-05T00:16:50.081Z,6.13
2023-05-05T00:19:17.121Z,5.85
2023-05-05T00:21:44.134Z,6.55
2023-05-05T00:24:11.204Z,5.60
2023-05-05T00:26:38.174Z,6.32
2023-05-05T00:29:05.787Z,6.32
2023-05-05T00:31:33.045Z,6.13
2023-05-05T00:34:00.201Z,6.38
2023-05-05T00:36:27.489Z,6.45
2023-05-05T00:38:54.490Z,6.03
2023-05-05T00:41:21.478Z,6.32
2023-05-05T00:43:48.864Z,6.13
2023-05-05T00:46:26.836Z,6.20
2023-05-05T00:48:55.242Z,6.10
2023-05-05T00:51:23.032Z,6.13
2023-05-05T00:53:50.469Z,6.03
2023-05-05T00:56:19.539Z,6.50
2023-05-05T00:58:46.846Z,6.32
2023-05-05T01:01:14.369Z,6.22
2023-05-05T01:03:41.923Z,6.80
2023-05-05T01:06:26.961Z,6.13
2023-05-05T01:09:06.052Z,6.43
2023-05-05T01:11:59.890Z,6.53
2023-05-05T01:14:40.394Z,6.43
2023-05-05T01:17:19.042Z,6.03
2023-05-05T01:20:21.021Z,6.25
2023-05-05T01:22:55.054Z,6.10
2023-05-05T01:25:59.441Z,5.82
2023-05-05T01:28:45.185Z,5.85
2023-05-05T01:31:52.042Z,6.43
2023-05-05T01:34:24.893Z,5.85
2023-05-05T01:37:13.771Z,6.18
2023-05-05T01:39:42.874Z,7.35
2023-05-05T01:42:15.205Z,6.20
2023-05-05T01:44:44.616Z,6.32
2023-05-05T01:47:19.560Z,6.78
2023-05-05T01:49:47.987Z,5.82
2023-05-05T01:52:16.207Z,6.07
2023-05-05T01:54:45.179Z,6.60
2023-05-05T01:57:13.675Z,6.53
2023-05-05T01:59:41.165Z,6.28
2023-05-05T02:02:11.464Z,6.43
2023-05-05T02:04:44.408Z,6.97
2023-05-05T02:07:15.489Z,6.63
2023-05-05T02:09:44.938Z,6.28
2023-05-05T02:12:12.669Z,6.97
2023-05-05T02:14:42.860Z,7.05
2023-05-05T02:17:10.891Z,6.30
2023-05-05T02:19:44.356Z,6.20
2023-05-05T02:22:12.392Z,6.60
2023-05-05T02:24:39.497Z,7.47
2023-05-05T02:27:08.614Z,7.28
2023-05-05T02:29:42.099Z,7.72
2023-05-05T02:32:37.589Z,7.53
2023-05-05T02:35:12.580Z,7.32
2023-05-05T02:37:46.646Z,7.13
2023-05-05T02:40:15.304Z,6.70
2023-05-05T02:42:46.434Z,7.13
2023-05-05T02:45:17.650Z,7.13
2023-05-05T02:47:47.745Z,7.15
2023-05-05T02:50:15.761Z,6.93
2023-05-05T02:52:51.100Z,7.60
2023-05-05T02:55:21.399Z,7.15
2023-05-05T02:58:06.761Z,7.32
2023-05-05T03:01:23.034Z,7.20
2023-05-05T03:04:00.478Z,7.60
2023-05-05T03:06:29.240Z,7.15
2023-05-05T03:09:07.317Z,7.20
2023-05-05T03:11:50.133Z,8.02
2023-05-05T03:14:21.211Z,7.45
2023-05-05T03:16:50.475Z,7.88
2023-05-05T03:19:19.895Z,7.50
2023-05-05T03:21:50.858Z,7.07
2023-05-05T03:24:19.413Z,7.50
2023-05-05T03:27:05.887Z,7.32
2023-05-05T03:29:37.051Z,7.03
2023-05-05T03:32:08.094Z,6.68
2023-05-05T03:34:37.441Z,7.03
2023-05-05T03:37:05.604Z,6.53
2023-05-05T03:39:32.957Z,7.70
2023-05-05T03:42:00.206Z,6.50
2023-05-05T03:44:31.188Z,7.22
2023-05-05T03:47:00.336Z,6.95
2023-05-05T03:49:29.634Z,6.60
2023-05-05T03:51:56.665Z,7.20
2023-05-05T03:54:23.817Z,7.78
2023-05-05T03:56:51.681Z,6.55
2023-05-05T03:59:18.692Z,6.90
2023-05-05T04:01:46.783Z,6.72
2023-05-05T04:04:13.926Z,6.18
2023-05-05T04:06:41.230Z,7.20
2023-05-05T04:09:08.863Z,6.70
2023-05-05T04:11:37.559Z,6.25
2023-05-05T04:14:04.598Z,6.53
2023-05-05T04:16:32.076Z,6.75
2023-05-05T04:18:59.669Z,6.55
2023-05-05T04:21:27.559Z,6.25
2023-05-05T04:23:55.401Z,6.30
2023-05-05T04:26:23.062Z,6.32
2023-05-05T04:28:50.515Z,6.60
2023-05-05T04:31:18.881Z,6.07
2023-05-05T04:33:47.133Z,6.20
2023-05-05T04:36:14.737Z,5.75
2023-05-05T04:38:41.858Z,5.40
2023-05-05T04:41:08.990Z,6.80
2023-05-05T04:43:38.578Z,6.32
2023-05-05T04:46:05.893Z,6.10
2023-05-05T04:48:37.198Z,5.82
2023-05-05T04:51:05.984Z,6.07
2023-05-05T04:53:33.421Z,6.45
2023-05-05T04:56:01.801Z,5.82
2023-05-05T04:58:29.152Z,6.15
2023-05-05T05:00:56.092Z,6.28
2023-05-05T05:03:23.311Z,5.88
2023-05-05T05:05:50.520Z,5.95
2023-05-05T05:08:17.682Z,5.72
2023-05-05T05:10:45.222Z,5.95
2023-05-05T05:13:12.856Z,5.72
2023-05-05T05:15:41.063Z,5.60
2023-05-05T05:18:08.465Z,6.10
2023-05-05T05:20:35.566Z,6.53
2023-05-05T05:23:02.646Z,6.65
2023-05-05T05:25:31.687Z,7.10
2023-05-05T05:28:09.541Z,5.95
2023-05-05T05:30:41.503Z,6.53
2023-05-05T05:33:10.784Z,5.90
2023-05-05T05:35:37.901Z,6.03
2023-05-05T05:38:05.054Z,6.35
2023-05-05T05:40:32.300Z,6.03
2023-05-05T05:42:59.938Z,6.10
2023-05-05T05:45:27.846Z,5.72
2023-05-05T05:48:59.070Z,6.63
2023-05-05T05:51:26.620Z,6.68
2023-05-05T05:53:54.560Z,6.85
2023-05-05T05:56:22.926Z,5.75
2023-05-05T05:58:50.736Z,5.97
2023-05-05T06:01:18.194Z,5.95
2023-05-05T06:03:45.885Z,6.50
2023-05-05T06:06:13.232Z,5.60
2023-05-05T06:08:40.470Z,6.32
2023-05-05T06:11:08.040Z,6.32
2023-05-05T06:13:35.215Z,6.13
2023-05-05T06:16:02.357Z,5.88
2023-05-05T06:18:29.538Z,5.53
2023-05-05T06:20:56.482Z,6.13
2023-05-05T06:23:27.032Z,5.78
2023-05-05T06:25:59.216Z,5.40
2023-05-05T06:28:26.308Z,5.50
2023-05-05T06:30:53.329Z,5.75
2023-05-05T06:33:20.336Z,5.10
2023-05-05T06:35:49.531Z,4.55
2023-05-05T06:38:16.804Z,4.88
2023-05-05T06:40:43.925Z,4.97
2023-05-05T06:43:11.278Z,4.47
2023-05-05T06:45:44.937Z,5.40
2023-05-05T06:48:12.479Z,4.82
2023-05-05T06:50:39.763Z,5.07
2023-05-05T06:53:06.938Z,5.15
2023-05-05T06:55:33.982Z,4.88
2023-05-05T06:58:01.070Z,5.00
2023-05-05T07:00:28.364Z,5.18
2023-05-05T07:02:55.601Z,4.60
2023-05-05T07:05:22.771Z,4.88
2023-05-05T07:07:54.295Z,4.45
2023-05-05T07:10:22.799Z,4.75
2023-05-05T07:12:50.706Z,5.30
2023-05-05T07:15:28.084Z,5.35
2023-05-05T07:17:56.740Z,5.53
2023-05-05T07:20:24.330Z,5.15
2023-05-05T07:22:51.683Z,4.80
2023-05-05T07:25:18.807Z,4.32
2023-05-05T07:27:46.016Z,4.50
2023-05-05T07:30:17.228Z,4.30
2023-05-05T07:32:46.403Z,4.43
2023-05-05T07:35:13.707Z,4.55
2023-05-05T07:37:40.877Z,4.68
2023-05-05T07:40:08.968Z,4.57
2023-05-05T07:42:36.367Z,4.10
2023-05-05T07:45:04.035Z,4.57
2023-05-05T07:47:31.298Z,4.13
2023-05-05T07:49:58.553Z,3.92
2023-05-05T07:52:43.698Z,4.20
2023-05-05T07:55:11.999Z,4.50
2023-05-05T07:57:39.359Z,4.10
2023-05-05T08:00:07.455Z,4.50
2023-05-05T08:02:41.442Z,4.30
2023-05-05T08:05:09.357Z,5.53
2023-05-05T08:07:41.224Z,4.57
2023-05-05T08:10:12.605Z,5.10
2023-05-05T08:12:40.672Z,4.53
2023-05-05T08:15:08.792Z,5.05
2023-05-05T08:17:46.142Z,4.82
2023-05-05T08:20:14.095Z,4.60
2023-05-05T08:22:42.512Z,4.65
2023-05-05T08:25:13.362Z,4.60
2023-05-05T08:27:43.214Z,4.70
2023-05-05T08:30:10.991Z,4.78
2023-05-05T08:32:38.658Z,4.88
2023-05-05T08:35:07.434Z,4.45
2023-05-05T08:37:34.812Z,4.67
2023-05-05T08:40:01.864Z,4.22
2023-05-05T08:42:38.166Z,4.10
2023-05-05T08:45:08.530Z,3.72
2023-05-05T08:47:36.857Z,4.25
2023-05-05T08:50:06.071Z,3.63
2023-05-05T08:52:46.545Z,4.28
2023-05-05T08:55:21.480Z,3.63
2023-05-05T08:57:56.806Z,3.90
2023-05-05T09:00:26.627Z,4.07
2023-05-05T09:02:57.123Z,3.75
2023-05-05T09:05:25.075Z,3.42
2023-05-05T09:07:52.486Z,3.80
2023-05-05T09:10:19.602Z,4.15
2023-05-05T09:12:46.674Z,3.47
2023-05-05T09:15:14.779Z,3.70
2023-05-05T09:17:42.976Z,4.40
2023-05-05T09:20:14.733Z,3.58
2023-05-05T09:22:45.747Z,3.58
2023-05-05T09:25:18.047Z,3.72
2023-05-05T09:27:49.569Z,3.38
2023-05-05T09:30:18.624Z,4.22
2023-05-05T09:32:47.827Z,3.53
2023-05-05T09:35:15.797Z,3.95
2023-05-05T09:37:43.133Z,3.60
2023-05-05T09:40:11.288Z,3.80
2023-05-05T09:42:39.659Z,3.25
2023-05-05T09:45:18.912Z,3.55
2023-05-05T09:47:49.250Z,3.75
2023-05-05T09:50:20.349Z,3.55
2023-05-05T09:53:06.158Z,2.90
2023-05-05T09:55:33.222Z,3.50
2023-05-05T09:58:20.331Z,3.35
2023-05-05T10:00:47.842Z,3.17
2023-05-05T10:03:15.421Z,3.17
2023-05-05T10:05:57.042Z,3.15
2023-05-05T10:08:28.087Z,3.08
2023-05-05T10:11:01.002Z,3.10
2023-05-05T10:13:28.966Z,3.28
2023-05-05T10:15:57.997Z,3.17
2023-05-05T10:18:26.550Z,3.10
2023-05-05T10:21:02.280Z,3.08
2023-05-05T10:23:36.166Z,2.70
2023-05-05T10:26:06.610Z,2.80
2023-05-05T10:28:37.424Z,3.00
2023-05-05T10:31:23.936Z,3.63
2023-05-05T10:34:16.635Z,4.57
2023-05-05T10:36:45.126Z,4.55
2023-05-05T10:39:15.335Z,4.88
2023-05-05T10:41:42.869Z,3.97
2023-05-05T10:44:11.553Z,4.25
2023-05-05T10:46:39.238Z,4.18
2023-05-05T10:49:20.441Z,4.72
2023-05-05T10:51:53.627Z,4.40
2023-05-05T10:57:24.154Z,4.38
2023-05-05T10:59:52.020Z,4.47
2023-05-05T11:02:21.905Z,4.70
2023-05-05T11:05:09.754Z,4.38
2023-05-05T11:10:44.613Z,5.13
2023-05-05T11:14:05.716Z,5.35
2023-05-05T11:16:43.867Z,4.47
2023-05-05T11:19:48.458Z,4.63
2023-05-05T11:22:16.567Z,4.00
2023-05-05T11:24:43.725Z,4.28
2023-05-05T11:27:17.763Z,4.28
2023-05-05T11:30:07.752Z,4.43
2023-05-05T11:32:36.023Z,4.60
2023-05-05T11:35:04.097Z,4.47
2023-05-05T11:37:31.148Z,4.35
2023-05-05T11:40:01.141Z,4.32
2023-05-05T11:42:28.848Z,4.35
2023-05-05T11:44:56.142Z,4.35
2023-05-05T11:47:23.172Z,4.00
2023-05-05T11:49:50.650Z,4.15
2023-05-05T11:52:17.749Z,3.92
2023-05-05T11:54:49.085Z,4.25
2023-05-05T11:57:21.240Z,4.38
2023-05-05T12:00:04.171Z,3.72
2023-05-05T12:02:34.403Z,4.05
2023-05-05T12:05:01.785Z,4.82
2023-05-05T12:07:31.809Z,4.38
2023-05-05T12:09:59.333Z,3.90
2023-05-05T12:12:38.068Z,4.28
2023-05-05T12:15:06.532Z,4.72
2023-05-05T12:17:42.746Z,4.55
2023-05-05T12:20:11.394Z,3.88
2023-05-05T12:22:39.271Z,3.30
2023-05-05T12:25:08.026Z,3.15
2023-05-05T12:27:36.364Z,2.80
2023-05-05T12:30:26.732Z,3.30
2023-05-05T12:33:02.184Z,3.17
2023-05-05T12:35:30.453Z,3.97
2023-05-05T12:37:58.549Z,3.22
2023-05-05T12:40:45.328Z,2.45
2023-05-05T12:43:27.535Z,3.42
2023-05-05T12:46:13.887Z,2.47
2023-05-05T12:48:46.389Z,2.33
2023-05-05T12:51:20.581Z,2.08
2023-05-05T12:53:49.210Z,2.25
2023-05-05T12:56:35.382Z,2.30
2023-05-05T12:59:05.177Z,2.63
2023-05-05T13:04:13.156Z,2.85
2023-05-05T13:06:45.149Z,2.80
2023-05-05T13:09:30.742Z,1.88
2023-05-05T13:11:58.025Z,1.80
2023-05-05T13:14:25.147Z,1.60
2023-05-05T13:16:53.402Z,1.92
2023-05-05T13:19:20.451Z,1.70
2023-05-05T13:21:47.500Z,1.80
2023-05-05T13:24:28.042Z,1.50
2023-05-05T13:26:58.498Z,1.42
2023-05-05T13:29:30.378Z,1.65
2023-05-05T13:31:58.739Z,1.83
2023-05-05T13:34:25.897Z,2.03
2023-05-05T13:36:53.174Z,2.05
2023-05-05T13:39:20.304Z,1.70
2023-05-05T13:41:47.390Z,1.98
2023-05-05T13:44:14.637Z,2.40
2023-05-05T13:46:42.772Z,2.00
2023-05-05T13:49:09.977Z,2.13
2023-05-05T13:51:38.388Z,1.83
2023-05-05T13:54:06.582Z,1.83
2023-05-05T13:56:34.685Z,2.00
2023-05-05T13:59:02.612Z,2.00
2023-05-05T14:01:30.379Z,1.73
2023-05-05T14:03:58.220Z,1.98
2023-05-05T14:06:26.178Z,2.30
2023-05-05T14:08:53.611Z,1.92
2023-05-05T14:11:21.053Z,2.00
2023-05-05T14:13:48.300Z,1.88
2023-05-05T14:16:16.089Z,3.92
2023-05-05T14:18:45.751Z,2.00
2023-05-05T14:21:12.795Z,1.80
2023-05-05T14:23:45.310Z,1.80
2023-05-05T14:26:13.169Z,1.90
2023-05-05T14:28:40.510Z,1.60
2023-05-05T14:31:11.367Z,1.45
2023-05-05T14:33:38.598Z,1.83
2023-05-05T14:36:05.968Z,1.90
2023-05-05T14:38:34.198Z,1.52
2023-05-05T14:41:01.458Z,1.65
2023-05-05T14:43:28.489Z,2.10
2023-05-05T14:45:55.966Z,2.30
2023-05-05T14:48:23.001Z,2.30
2023-05-05T14:50:50.226Z,2.40
2023-05-05T14:53:19.249Z,2.58
2023-05-05T14:55:46.344Z,2.60
2023-05-05T14:58:13.536Z,2.35
2023-05-05T15:00:40.783Z,2.42
2023-05-05T15:03:08.036Z,2.15
2023-05-05T15:05:35.800Z,2.00
2023-05-05T15:08:02.907Z,2.20
2023-05-05T15:10:30.168Z,1.88
2023-05-05T15:12:57.625Z,2.10
2023-05-05T15:15:24.911Z,2.10
2023-05-05T15:17:52.782Z,2.35
2023-05-05T15:20:19.989Z,2.20
2023-05-05T15:22:48.456Z,1.90
2023-05-05T15:25:18.838Z,2.17
2023-05-05T15:27:46.532Z,2.08
2023-05-05T15:30:14.290Z,2.00
2023-05-05T15:32:41.880Z,2.08
2023-05-05T15:35:09.436Z,2.40
2023-05-05T15:37:38.017Z,2.55
2023-05-05T15:40:05.663Z,3.00
2023-05-05T15:42:33.868Z,2.60
2023-05-05T15:45:05.547Z,2.80
2023-05-05T15:47:32.831Z,2.30
2023-05-05T15:49:59.854Z,2.03
2023-05-05T15:52:27.016Z,2.35
2023-05-05T15:54:54.228Z,2.00
2023-05-05T15:57:21.620Z,2.00
2023-05-05T15:59:52.401Z,1.73
2023-05-05T16:02:20.717Z,1.60
2023-05-05T16:04:48.004Z,1.83
2023-05-05T16:07:15.124Z,2.15
2023-05-05T16:09:42.197Z,2.10
2023-05-05T16:12:09.371Z,2.00
2023-05-05T16:14:36.733Z,1.73
2023-05-05T16:17:04.309Z,2.00
2023-05-05T16:19:31.456Z,1.90
2023-05-05T16:21:58.605Z,1.70
2023-05-05T16:24:25.890Z,1.77
2023-05-05T16:26:53.168Z,1.50
2023-05-05T16:29:20.362Z,1.85
2023-05-05T16:31:50.565Z,1.77
2023-05-05T16:34:17.716Z,2.20
2023-05-05T16:36:45.022Z,3.63
2023-05-05T16:39:15.382Z,3.65
2023-05-05T16:41:45.383Z,2.30
2023-05-05T16:44:39.086Z,2.15
2023-05-05T16:47:06.665Z,1.70
2023-05-05T16:49:39.125Z,2.00
2023-05-05T16:52:11.878Z,2.10
2023-05-05T16:54:42.050Z,1.95
2023-05-05T16:57:09.553Z,2.08
2023-05-05T16:59:41.887Z,2.05
2023-05-05T17:02:09.063Z,2.00
2023-05-05T17:04:36.298Z,1.90
2023-05-05T17:07:05.971Z,2.03
2023-05-05T17:09:33.029Z,1.90
2023-05-05T17:12:00.532Z,2.05
2023-05-05T17:14:29.022Z,2.27
2023-05-05T17:16:56.169Z,2.40
2023-05-05T17:19:27.961Z,2.30
2023-05-05T17:22:02.037Z,2.13
2023-05-05T17:24:29.136Z,2.05
2023-05-05T17:26:57.556Z,2.30
2023-05-05T17:29:25.051Z,2.55
2023-05-05T17:31:52.128Z,2.67
2023-05-05T17:34:19.267Z,2.58
2023-05-05T17:36:46.367Z,2.50
2023-05-05T17:39:13.954Z,2.70
2023-05-05T17:41:42.757Z,3.25
2023-05-05T17:44:10.932Z,3.88
2023-05-05T17:46:40.270Z,3.35
2023-05-05T17:49:09.121Z,4.05
2023-05-05T17:51:36.224Z,4.40
2023-05-05T17:54:03.171Z,4.03
2023-05-05T17:56:30.224Z,4.53
2023-05-05T17:58:57.176Z,4.43
2023-05-05T18:01:26.009Z,3.70
2023-05-05T18:03:53.386Z,3.03
2023-05-05T18:06:20.512Z,2.72
2023-05-05T18:08:47.674Z,2.70
2023-05-05T18:11:15.471Z,2.55
2023-05-05T18:13:43.249Z,2.28
2023-05-05T18:16:10.361Z,2.38
2023-05-05T18:18:37.506Z,2.13
2023-05-05T18:21:12.369Z,2.60
2023-05-05T18:23:40.272Z,1.90
2023-05-05T18:26:07.735Z,2.20
2023-05-05T18:28:34.784Z,2.28
2023-05-05T18:31:01.769Z,2.10
2023-05-05T18:33:28.774Z,2.42
2023-05-05T18:35:56.579Z,2.15
2023-05-05T18:38:23.890Z,2.20
2023-05-05T18:40:50.957Z,4.88
2023-05-05T18:43:17.874Z,2.40
2023-05-05T18:45:45.555Z,2.00
2023-05-05T18:48:12.757Z,2.30
2023-05-05T18:50:39.754Z,1.80
2023-05-05T18:53:06.756Z,2.50
2023-05-05T18:55:34.081Z,1.95
2023-05-05T18:58:02.481Z,2.30
2023-05-05T19:00:39.713Z,1.90
2023-05-05T19:03:07.194Z,2.20
2023-05-05T19:05:34.532Z,2.15
2023-05-05T19:08:02.423Z,2.17
2023-05-05T19:10:29.585Z,2.15
2023-05-05T19:12:56.751Z,2.38
2023-05-05T19:15:24.117Z,1.98
2023-05-05T19:17:52.264Z,2.28
2023-05-05T19:20:20.140Z,1.75
2023-05-05T19:22:48.760Z,1.98
2023-05-05T19:25:17.050Z,1.70
2023-05-05T19:27:44.419Z,2.00
2023-05-05T19:30:30.195Z,2.40
2023-05-05T19:32:58.582Z,1.90
2023-05-05T19:35:26.311Z,2.05
2023-05-05T19:37:53.641Z,2.40
2023-05-05T19:40:21.192Z,2.30
2023-05-05T19:42:48.575Z,2.67
2023-05-05T19:45:16.642Z,1.75
2023-05-05T19:47:48.204Z,1.90
2023-05-05T19:50:16.438Z,2.35
2023-05-05T19:52:46.323Z,2.20
2023-05-05T19:55:42.798Z,2.08
2023-05-05T19:58:11.221Z,2.15
2023-05-05T20:00:43.512Z,1.95
2023-05-05T20:03:11.290Z,2.72
2023-05-05T20:05:38.444Z,2.45
2023-05-05T20:08:06.302Z,2.28
2023-05-05T20:10:33.512Z,2.30
2023-05-05T20:13:02.597Z,2.50
2023-05-05T20:15:31.329Z,2.53
2023-05-05T20:18:00.005Z,2.30
2023-05-05T20:20:27.598Z,2.70
2023-05-05T20:22:54.881Z,2.75
2023-05-05T20:25:22.794Z,2.25
2023-05-05T20:27:50.215Z,2.70
2023-05-05T20:30:18.108Z,2.50
2023-05-05T20:32:45.815Z,2.63
2023-05-05T20:35:13.967Z,2.97
2023-05-05T20:37:42.079Z,2.90
2023-05-05T20:41:02.532Z,2.92
2023-05-05T20:43:30.555Z,3.38
2023-05-05T20:45:57.982Z,3.15
2023-05-05T20:48:25.077Z,3.25
2023-05-05T20:50:52.270Z,3.80
2023-05-05T20:53:20.966Z,3.20
2023-05-05T20:55:51.110Z,3.30
2023-05-05T20:58:22.530Z,3.08
2023-05-05T21:00:52.834Z,3.80
2023-05-05T21:03:23.751Z,3.10
2023-05-05T21:05:55.150Z,3.08
2023-05-05T21:08:24.730Z,2.80
2023-05-05T21:13:21.130Z,3.53
2023-05-05T21:15:50.765Z,3.63
2023-05-05T21:18:18.699Z,3.97
2023-05-05T21:20:46.986Z,4.20
2023-05-05T21:23:20.153Z,4.45
2023-05-05T21:25:50.243Z,3.53
2023-05-05T21:28:27.614Z,3.83
2023-05-05T21:31:19.806Z,3.60
2023-05-05T21:33:43.698Z,3.05
2023-05-05T21:36:11.487Z,3.00
2023-05-05T21:38:44.649Z,2.75
2023-05-05T21:41:12.441Z,3.10
2023-05-05T21:43:43.883Z,2.65
2023-05-05T21:46:19.869Z,2.90
2023-05-05T21:48:51.337Z,2.90
2023-05-05T21:51:23.963Z,3.20
2023-05-05T21:53:54.788Z,3.05
2023-05-05T21:56:23.428Z,3.03
2023-05-05T22:01:32.798Z,3.53
2023-05-05T22:04:04.156Z,3.55
2023-05-05T22:06:32.845Z,3.40
2023-05-05T22:09:00.995Z,3.30
2023-05-05T22:11:29.136Z,3.45
2023-05-05T22:13:57.176Z,3.72
2023-05-05T22:16:26.191Z,3.22
2023-05-05T22:21:21.790Z,3.53
2023-05-05T22:23:49.753Z,3.63
2023-05-05T22:26:18.664Z,2.95
2023-05-05T22:28:46.276Z,3.57
2023-05-05T22:31:13.303Z,4.10
2023-05-05T22:33:40.265Z,3.55
2023-05-05T22:36:09.033Z,3.97
2023-05-05T22:38:36.151Z,3.65
2023-05-05T22:41:06.532Z,4.32
2023-05-05T22:43:33.486Z,3.78
2023-05-05T22:46:01.148Z,4.10
2023-05-05T22:48:28.143Z,4.53
2023-05-05T22:50:55.093Z,3.80
2023-05-05T22:53:23.354Z,3.80
2023-05-05T22:55:51.732Z,4.15
2023-05-05T22:58:18.986Z,4.05
2023-05-05T23:00:46.135Z,4.28
2023-05-05T23:03:13.841Z,4.47
2023-05-05T23:05:41.006Z,4.40
2023-05-05T23:08:08.074Z,5.25
2023-05-05T23:10:35.561Z,4.88
2023-05-05T23:13:03.329Z,4.05
2023-05-05T23:15:31.244Z,4.88
2023-05-05T23:17:58.593Z,5.38
2023-05-05T23:20:26.481Z,5.45
2023-05-05T23:22:58.553Z,5.22
2023-05-05T23:25:26.995Z,5.72
2023-05-05T23:27:55.010Z,5.57
2023-05-05T23:30:22.930Z,5.63
2023-05-05T23:32:50.907Z,5.80
2023-05-05T23:35:21.675Z,5.38
2023-05-05T23:37:51.030Z,5.88
2023-05-05T23:40:21.433Z,6.22
2023-05-05T23:42:49.593Z,6.70
2023-05-05T23:45:20.364Z,6.70
2023-05-05T23:47:52.388Z,6.93
2023-05-05T23:50:22.585Z,7.45
2023-05-05T23:52:49.849Z,6.30
2023-05-05T23:55:17.035Z,7.05
2023-05-05T23:57:44.082Z,7.50
